createdAt,value
2019-02-08T00:01:53.112Z,4.27
2019-02-08T00:04:22.712Z,4.10
2019-02-08T00:06:52.624Z,5.40
2019-02-08T00:09:22.433Z,4.77
2019-02-08T00:11:52.495Z,7.90
2019-02-08T00:14:22.449Z,5.57
2019-02-08T00:16:52.069Z,3.70
2019-02-08T00:19:21.721Z,3.50
2019-02-08T00:21:51.401Z,5.57
2019-02-08T00:24:21.154Z,5.77
2019-02-08T00:26:51.041Z,5.87
2019-02-08T00:29:20.969Z,4.93
2019-02-08T00:31:50.757Z,5.47
2019-02-08T00:34:20.458Z,5.33
2019-02-08T00:36:50.298Z,4.47
2019-02-08T00:39:20.221Z,5.97
2019-02-08T00:41:50.211Z,4.27
2019-02-08T00:44:19.890Z,4.87
2019-02-08T00:46:49.510Z,3.53
2019-02-08T00:49:19.266Z,5.13
2019-02-08T00:51:48.893Z,5.77
2019-02-08T00:54:18.501Z,6.23
2019-02-08T00:56:48.503Z,7.27
2019-02-08T00:59:18.125Z,5.23
2019-02-08T01:01:47.930Z,5.93
2019-02-08T01:04:18.528Z,3.87
2019-02-08T01:06:48.121Z,4.90
2019-02-08T01:09:17.991Z,4.40
2019-02-08T01:11:47.997Z,4.03
2019-02-08T01:14:17.672Z,4.90
2019-02-08T01:16:47.347Z,4.20
2019-02-08T01:19:16.941Z,5.13
2019-02-08T01:21:46.550Z,4.10
2019-02-08T01:24:16.478Z,3.97
2019-02-08T01:26:46.113Z,3.80
2019-02-08T01:29:15.793Z,3.53
2019-02-08T01:31:45.407Z,4.87
2019-02-08T01:34:15.085Z,6.67
2019-02-08T01:36:44.742Z,3.83
2019-02-08T01:39:14.501Z,3.43
2019-02-08T01:41:44.139Z,5.40
2019-02-08T01:44:13.813Z,3.57
2019-02-08T01:46:43.418Z,3.93
2019-02-08T01:49:13.301Z,3.70
2019-02-08T01:51:44.034Z,4.27
2019-02-08T01:54:14.897Z,4.53
2019-02-08T01:56:44.489Z,6.83
2019-02-08T01:59:14.093Z,4.60
2019-02-08T02:01:43.787Z,4.17
2019-02-08T02:04:13.481Z,5.33
2019-02-08T02:06:43.321Z,4.50
2019-02-08T02:09:12.996Z,4.33
2019-02-08T02:11:42.609Z,5.00
2019-02-08T02:14:12.339Z,4.90
2019-02-08T02:16:42.030Z,4.20
2019-02-08T02:19:11.759Z,4.00
2019-02-08T02:21:41.441Z,6.13
2019-02-08T02:24:11.045Z,4.83
2019-02-08T02:26:40.727Z,5.20
2019-02-08T02:29:10.314Z,4.77
2019-02-08T02:31:40.282Z,6.20
2019-02-08T02:34:09.973Z,6.77
2019-02-08T02:36:39.646Z,6.63
2019-02-08T02:39:09.718Z,7.83
2019-02-08T02:41:39.419Z,5.40
2019-02-08T02:44:09.116Z,5.80
2019-02-08T02:46:38.778Z,6.70
2019-02-08T02:49:08.586Z,6.30
2019-02-08T02:51:38.261Z,6.63
2019-02-08T02:54:08.226Z,7.93
2019-02-08T02:56:37.845Z,8.10
2019-02-08T02:59:07.626Z,6.97
2019-02-08T03:01:37.305Z,9.13
2019-02-08T03:04:07.072Z,10.43
2019-02-08T03:06:36.681Z,9.60
2019-02-08T03:09:09.474Z,8.63
2019-02-08T03:11:39.090Z,9.50
2019-02-08T03:14:08.836Z,10.67
2019-02-08T03:16:38.441Z,9.33
2019-02-08T03:19:08.194Z,9.57
2019-02-08T03:21:37.861Z,8.27
2019-02-08T03:24:12.896Z,8.73
2019-02-08T03:26:38.921Z,8.73
2019-02-08T03:29:08.922Z,9.40
2019-02-08T03:31:38.613Z,8.83
2019-02-08T03:34:08.374Z,9.00
2019-02-08T03:36:37.995Z,8.70
2019-02-08T03:39:09.149Z,8.23
2019-02-08T03:41:38.838Z,8.23
2019-02-08T03:44:08.565Z,8.73
2019-02-08T03:46:38.154Z,9.07
2019-02-08T03:49:07.994Z,9.90
2019-02-08T03:51:37.610Z,10.77
2019-02-08T03:54:07.376Z,10.27
2019-02-08T03:56:36.977Z,10.20
2019-02-08T03:59:06.740Z,10.50
2019-02-08T04:01:36.447Z,9.77
2019-02-08T04:04:14.929Z,9.30
2019-02-08T04:06:44.809Z,9.47
2019-02-08T04:09:14.760Z,9.10
2019-02-08T04:11:44.465Z,7.67
2019-02-08T04:14:14.137Z,8.17
2019-02-08T04:16:43.731Z,6.73
2019-02-08T04:19:13.362Z,7.37
2019-02-08T04:21:43.385Z,7.17
2019-02-08T04:24:13.226Z,8.03
2019-02-08T04:26:42.827Z,8.17
2019-02-08T04:29:12.571Z,8.27
2019-02-08T04:31:42.528Z,7.47
2019-02-08T04:34:12.421Z,8.00
2019-02-08T04:36:42.042Z,8.33
2019-02-08T04:39:11.728Z,7.87
2019-02-08T04:41:41.337Z,7.50
2019-02-08T04:44:11.181Z,9.00
2019-02-08T04:46:40.894Z,8.67
2019-02-08T04:49:10.491Z,7.77
2019-02-08T04:51:40.086Z,6.97
2019-02-08T04:54:09.761Z,7.33
2019-02-08T04:56:39.447Z,8.07
2019-02-08T04:59:09.184Z,6.47
2019-02-08T05:01:38.847Z,7.57
2019-02-08T05:04:08.535Z,6.57
2019-02-08T05:06:38.230Z,7.00
2019-02-08T05:09:08.497Z,7.00
2019-02-08T05:11:38.110Z,6.47
2019-02-08T05:14:07.839Z,6.43
2019-02-08T05:16:37.434Z,6.73
2019-02-08T05:19:07.105Z,6.17
2019-02-08T05:21:36.719Z,6.57
2019-02-08T05:24:06.592Z,7.10
2019-02-08T05:26:36.217Z,7.40
2019-02-08T05:29:05.911Z,6.73
2019-02-08T05:31:35.542Z,7.73
2019-02-08T05:34:05.528Z,7.90
2019-02-08T05:36:35.133Z,6.33
2019-02-08T05:39:09.153Z,7.67
2019-02-08T05:41:38.984Z,6.77
2019-02-08T05:44:08.758Z,7.33
2019-02-08T05:46:38.441Z,6.53
2019-02-08T05:49:08.111Z,7.20
2019-02-08T05:51:37.723Z,7.63
2019-02-08T05:54:07.562Z,7.73
2019-02-08T05:56:37.165Z,7.40
2019-02-08T05:59:08.068Z,7.63
2019-02-08T06:01:37.789Z,7.87
2019-02-08T06:04:07.520Z,6.53
2019-02-08T06:06:37.130Z,6.00
2019-02-08T06:09:09.139Z,6.10
2019-02-08T06:11:38.937Z,5.87
2019-02-08T06:14:08.888Z,7.23
2019-02-08T06:16:38.477Z,6.30
2019-02-08T06:19:08.137Z,6.47
2019-02-08T06:21:37.770Z,5.13
2019-02-08T06:24:07.453Z,6.17
2019-02-08T06:26:37.072Z,6.97
2019-02-08T06:29:06.755Z,5.70
2019-02-08T06:31:36.365Z,6.97
2019-02-08T06:34:06.368Z,7.97
2019-02-08T06:36:35.986Z,6.63
2019-02-08T06:39:08.767Z,5.97
2019-02-08T06:41:38.375Z,6.50
2019-02-08T06:44:08.248Z,6.27
2019-02-08T06:46:37.939Z,5.97
2019-02-08T06:49:08.082Z,5.93
2019-02-08T06:51:37.669Z,5.20
2019-02-08T06:54:07.348Z,6.37
2019-02-08T06:57:04.891Z,5.57
2019-02-08T06:59:48.588Z,8.37
2019-02-08T07:02:31.374Z,7.97
2019-02-08T07:05:16.666Z,8.23
2019-02-08T07:07:56.177Z,7.17
2019-02-08T07:10:47.974Z,7.37
2019-02-08T07:13:34.594Z,7.73
2019-02-08T07:16:15.857Z,8.70
2019-02-08T07:18:59.415Z,7.97
2019-02-08T07:21:40.166Z,7.17
2019-02-08T07:24:15.201Z,8.40
2019-02-08T07:27:09.952Z,8.23
2019-02-08T07:29:54.647Z,8.37
2019-02-08T07:32:30.579Z,9.10
2019-02-08T07:35:22.406Z,10.33
2019-02-08T07:38:17.433Z,10.80
2019-02-08T07:41:19.430Z,9.70
2019-02-08T07:44:10.704Z,9.10
2019-02-08T07:46:55.626Z,10.53
2019-02-08T07:49:40.435Z,8.63
2019-02-08T07:52:17.465Z,10.90
2019-02-08T07:55:00.246Z,9.70
2019-02-08T07:58:08.022Z,10.77
2019-02-08T08:00:55.682Z,7.77
2019-02-08T08:03:47.354Z,10.43
2019-02-08T08:06:38.102Z,9.63
2019-02-08T08:09:18.536Z,8.67
2019-02-08T08:12:06.347Z,10.20
2019-02-08T08:14:59.102Z,7.27
2019-02-08T08:17:53.845Z,7.70
2019-02-08T08:20:47.058Z,8.47
2019-02-08T08:23:41.676Z,9.93
2019-02-08T08:26:19.632Z,10.37
2019-02-08T08:29:05.270Z,9.80
2019-02-08T08:31:43.210Z,9.23
2019-02-08T08:34:26.405Z,9.70
2019-02-08T08:37:42.514Z,7.90
2019-02-08T08:40:43.867Z,8.73
2019-02-08T08:43:29.125Z,8.77
2019-02-08T08:46:29.155Z,7.73
2019-02-08T08:49:51.665Z,7.63
2019-02-08T08:52:36.238Z,7.67
2019-02-08T08:55:55.395Z,7.70
2019-02-08T08:59:03.677Z,7.83
2019-02-08T09:02:02.874Z,8.40
2019-02-08T09:05:11.642Z,6.73
2019-02-08T09:08:27.335Z,8.17
2019-02-08T09:11:32.725Z,7.83
2019-02-08T09:14:40.471Z,9.00
2019-02-08T09:17:48.097Z,7.07
2019-02-08T09:21:10.049Z,9.07
2019-02-08T09:24:08.509Z,8.67
2019-02-08T09:27:14.439Z,9.30
2019-02-08T09:30:46.846Z,7.50
2019-02-08T09:33:46.918Z,8.17
2019-02-08T09:36:53.925Z,8.33
2019-02-08T09:39:59.670Z,7.37
2019-02-08T09:43:02.222Z,8.73
2019-02-08T09:46:09.441Z,7.37
2019-02-08T09:49:11.226Z,7.07
2019-02-08T09:52:24.941Z,9.87
2019-02-08T09:55:20.074Z,8.47
2019-02-08T09:58:25.985Z,8.83
2019-02-08T10:01:22.816Z,8.17
2019-02-08T10:04:26.005Z,7.33
2019-02-08T10:07:55.378Z,7.20
2019-02-08T10:10:56.668Z,7.97
2019-02-08T10:14:03.040Z,7.13
2019-02-08T10:16:59.121Z,8.80
2019-02-08T10:20:04.981Z,8.07
2019-02-08T10:23:15.810Z,7.47
2019-02-08T10:26:26.019Z,7.10
2019-02-08T10:29:22.458Z,8.73
2019-02-08T10:32:41.141Z,7.73
2019-02-08T10:35:37.618Z,7.87
2019-02-08T10:38:41.082Z,6.83
2019-02-08T10:41:44.062Z,6.40
2019-02-08T10:44:50.097Z,8.37
2019-02-08T10:48:04.929Z,7.10
2019-02-08T10:51:14.883Z,6.30
2019-02-08T10:54:20.712Z,6.37
2019-02-08T10:57:41.147Z,7.20
2019-02-08T11:00:50.908Z,6.17
2019-02-08T11:03:59.209Z,6.30
2019-02-08T11:07:34.850Z,5.83
2019-02-08T11:10:54.966Z,6.77
2019-02-08T11:14:00.692Z,6.23
2019-02-08T11:17:13.129Z,6.20
2019-02-08T11:19:41.486Z,7.03
2019-02-08T11:22:11.173Z,6.30
2019-02-08T11:24:40.909Z,6.97
2019-02-08T11:27:10.607Z,6.00
2019-02-08T11:29:40.366Z,7.00
2019-02-08T11:32:10.078Z,5.77
2019-02-08T11:34:39.678Z,4.83
2019-02-08T11:37:09.434Z,5.67
2019-02-08T11:39:39.089Z,5.77
2019-02-08T11:42:08.881Z,5.43
2019-02-08T11:44:38.581Z,4.90
2019-02-08T11:47:08.334Z,5.97
2019-02-08T11:49:38.031Z,7.40
2019-02-08T11:52:08.081Z,4.47
2019-02-08T11:54:37.654Z,6.00
2019-02-08T11:57:07.290Z,5.07
2019-02-08T11:59:36.882Z,4.43
2019-02-08T12:02:06.571Z,5.37
2019-02-08T12:04:36.467Z,4.03
2019-02-08T12:07:06.431Z,4.50
2019-02-08T12:09:36.272Z,5.80
2019-02-08T12:12:06.366Z,6.97
2019-02-08T12:14:36.121Z,5.87
2019-02-08T12:17:05.862Z,5.73
2019-02-08T12:19:35.676Z,5.20
2019-02-08T12:22:05.893Z,5.40
2019-02-08T12:24:35.527Z,4.77
2019-02-08T12:27:05.293Z,4.87
2019-02-08T12:29:34.981Z,3.90
2019-02-08T12:32:04.862Z,3.93
2019-02-08T12:34:35.541Z,5.40
2019-02-08T12:37:05.257Z,3.93
2019-02-08T12:39:34.923Z,4.70
2019-02-08T12:42:04.721Z,4.07
2019-02-08T12:44:34.415Z,4.23
2019-02-08T12:47:04.038Z,3.93
2019-02-08T12:49:33.918Z,4.40
2019-02-08T12:52:03.628Z,4.97
2019-02-08T12:54:33.318Z,3.67
2019-02-08T12:57:02.934Z,3.17
2019-02-08T12:59:32.624Z,4.37
2019-02-08T13:02:02.233Z,3.37
2019-02-08T13:04:31.937Z,3.60
2019-02-08T13:07:01.646Z,3.67
2019-02-08T13:09:31.258Z,3.23
2019-02-08T13:12:00.925Z,4.50
2019-02-08T13:14:30.766Z,3.30
2019-02-08T13:17:00.388Z,3.30
2019-02-08T13:19:30.021Z,3.27
2019-02-08T13:21:59.657Z,3.50
2019-02-08T13:24:29.383Z,3.57
2019-02-08T13:26:58.977Z,3.57
2019-02-08T13:29:29.654Z,4.17
2019-02-08T13:31:59.377Z,4.40
2019-02-08T13:34:29.078Z,3.70
2019-02-08T13:36:58.694Z,3.50
2019-02-08T13:39:28.310Z,3.73
2019-02-08T13:41:58.030Z,3.33
2019-02-08T13:44:27.775Z,4.73
2019-02-08T13:46:57.563Z,4.30
2019-02-08T13:49:27.169Z,3.43
2019-02-08T13:51:56.880Z,2.40
2019-02-08T13:54:26.519Z,2.77
2019-02-08T13:57:00.616Z,4.00
2019-02-08T13:59:28.435Z,3.97
2019-02-08T14:01:58.099Z,3.97
2019-02-08T14:04:27.701Z,3.63
2019-02-08T14:06:57.418Z,3.43
2019-02-08T14:09:27.033Z,3.40
2019-02-08T14:11:56.649Z,3.53
2019-02-08T14:14:26.270Z,3.50
2019-02-08T14:16:55.993Z,3.30
2019-02-08T14:19:25.609Z,4.33
2019-02-08T14:21:55.206Z,4.53
2019-02-08T14:24:24.970Z,5.03
2019-02-08T14:26:54.617Z,4.23
2019-02-08T14:29:24.241Z,3.87
2019-02-08T14:31:53.855Z,3.33
2019-02-08T14:34:23.462Z,2.23
2019-02-08T14:36:53.090Z,3.33
2019-02-08T14:39:22.715Z,2.03
2019-02-08T14:41:52.346Z,2.83
2019-02-08T14:44:21.958Z,2.50
2019-02-08T14:46:51.699Z,3.00
2019-02-08T14:49:21.496Z,2.43
2019-02-08T14:51:51.113Z,3.20
2019-02-08T14:54:21.982Z,2.83
2019-02-08T14:56:51.624Z,3.83
2019-02-08T14:59:21.249Z,3.47
2019-02-08T15:01:50.940Z,2.67
2019-02-08T15:04:20.621Z,3.17
2019-02-08T15:06:50.270Z,3.37
2019-02-08T15:09:20.193Z,3.13
2019-02-08T15:11:49.964Z,2.93
2019-02-08T15:14:19.565Z,4.77
2019-02-08T15:16:49.250Z,3.47
2019-02-08T15:19:18.883Z,2.77
2019-02-08T15:21:48.520Z,2.13
2019-02-08T15:24:18.134Z,3.57
2019-02-08T15:26:47.733Z,5.03
2019-02-08T15:29:17.437Z,2.60
2019-02-08T15:31:47.077Z,3.27
2019-02-08T15:34:16.782Z,3.50
2019-02-08T15:36:49.389Z,3.97
2019-02-08T15:39:17.729Z,3.30
2019-02-08T15:41:47.345Z,3.53
2019-02-08T15:44:16.982Z,4.23
2019-02-08T15:46:46.594Z,2.87
2019-02-08T15:49:16.450Z,3.50
2019-02-08T15:51:46.254Z,3.70
2019-02-08T15:54:15.991Z,3.63
2019-02-08T15:56:45.618Z,2.70
2019-02-08T15:59:15.210Z,2.50
2019-02-08T16:01:44.928Z,3.63
2019-02-08T16:04:14.543Z,2.93
2019-02-08T16:06:44.229Z,3.80
2019-02-08T16:09:14.314Z,3.27
2019-02-08T16:11:44.080Z,2.37
2019-02-08T16:14:13.791Z,3.93
2019-02-08T16:16:43.465Z,2.73
2019-02-08T16:19:13.142Z,3.30
2019-02-08T16:21:42.917Z,4.30
2019-02-08T16:24:12.707Z,2.10
2019-02-08T16:26:42.309Z,2.17
2019-02-08T16:29:12.045Z,3.33
2019-02-08T16:31:41.659Z,3.10
2019-02-08T16:34:11.373Z,2.73
2019-02-08T16:36:41.985Z,3.67
2019-02-08T16:39:11.651Z,3.40
2019-02-08T16:41:41.261Z,3.83
2019-02-08T16:44:11.169Z,3.40
2019-02-08T16:46:40.989Z,2.20
2019-02-08T16:49:10.644Z,2.57
2019-02-08T16:51:40.253Z,2.87
2019-02-08T16:54:10.043Z,3.60
2019-02-08T16:56:39.885Z,3.27
2019-02-08T16:59:09.831Z,2.37
2019-02-08T17:01:39.446Z,2.63
2019-02-08T17:04:09.076Z,4.10
2019-02-08T17:06:38.766Z,3.13
2019-02-08T17:09:12.157Z,3.27
2019-02-08T17:11:41.785Z,3.37
2019-02-08T17:14:11.416Z,2.40
2019-02-08T17:16:41.113Z,3.37
2019-02-08T17:19:10.899Z,4.17
2019-02-08T17:21:40.569Z,2.30
2019-02-08T17:24:10.214Z,3.03
2019-02-08T17:26:39.894Z,2.67
2019-02-08T17:29:10.687Z,4.30
2019-02-08T17:31:40.301Z,3.67
2019-02-08T17:34:10.000Z,2.70
2019-02-08T17:36:39.631Z,3.07
2019-02-08T17:39:09.779Z,2.53
2019-02-08T17:41:39.420Z,4.20
2019-02-08T17:44:09.018Z,2.47
2019-02-08T17:46:38.637Z,3.33
2019-02-08T17:49:08.274Z,2.73
2019-02-08T17:51:37.891Z,3.93
2019-02-08T17:54:07.488Z,4.33
2019-02-08T17:56:37.221Z,4.23
2019-02-08T17:59:06.826Z,3.03
2019-02-08T18:01:36.437Z,3.13
2019-02-08T18:04:06.037Z,2.90
2019-02-08T18:06:35.657Z,2.37
2019-02-08T18:09:08.986Z,2.40
2019-02-08T18:11:38.613Z,3.07
2019-02-08T18:14:08.363Z,3.27
2019-02-08T18:16:37.959Z,2.80
2019-02-08T18:19:07.665Z,3.93
2019-02-08T18:21:37.302Z,3.70
2019-02-08T18:24:06.969Z,2.13
2019-02-08T18:26:36.578Z,4.73
2019-02-08T18:29:06.266Z,2.57
2019-02-08T18:31:35.955Z,3.03
2019-02-08T18:34:05.597Z,3.93
2019-02-08T18:36:35.211Z,4.50
2019-02-08T18:39:07.738Z,4.07
2019-02-08T18:41:37.375Z,3.50
2019-02-08T18:44:06.993Z,4.80
2019-02-08T18:46:36.629Z,3.37
2019-02-08T18:49:06.427Z,2.50
2019-02-08T18:51:36.025Z,3.90
2019-02-08T18:54:05.712Z,2.80
2019-02-08T18:56:35.374Z,4.23
2019-02-08T18:59:05.159Z,3.30
2019-02-08T19:01:34.770Z,4.37
2019-02-08T19:04:05.848Z,5.07
2019-02-08T19:06:37.171Z,3.67
2019-02-08T19:09:08.942Z,3.00
2019-02-08T19:11:39.737Z,2.97
2019-02-08T19:14:09.501Z,4.20
2019-02-08T19:16:39.489Z,4.17
2019-02-08T19:19:09.086Z,4.40
2019-02-08T19:21:39.825Z,4.03
2019-02-08T19:24:09.559Z,4.97
2019-02-08T19:26:39.266Z,2.90
2019-02-08T19:29:08.874Z,3.30
2019-02-08T19:31:38.474Z,4.03
2019-02-08T19:34:08.166Z,3.63
2019-02-08T19:36:37.859Z,8.20
2019-02-08T19:39:09.190Z,3.67
2019-02-08T19:41:38.813Z,5.57
2019-02-08T19:44:08.409Z,24.23
2019-02-08T19:46:38.030Z,5.20
2019-02-08T19:49:07.647Z,5.90
2019-02-08T19:51:37.278Z,2.77
2019-02-08T19:54:07.217Z,4.60
2019-02-08T19:56:37.046Z,4.70
2019-02-08T19:59:06.680Z,4.00
2019-02-08T20:01:36.269Z,3.43
2019-02-08T20:04:05.993Z,4.43
2019-02-08T20:06:35.669Z,6.10
2019-02-08T20:09:08.630Z,3.27
2019-02-08T20:11:38.334Z,5.40
2019-02-08T20:14:08.389Z,4.13
2019-02-08T20:16:38.021Z,4.73
2019-02-08T20:19:07.733Z,3.60
2019-02-08T20:21:37.413Z,5.07
2019-02-08T20:24:07.139Z,3.27
2019-02-08T20:26:36.735Z,3.43
2019-02-08T20:29:06.422Z,3.93
2019-02-08T20:31:36.097Z,4.37
2019-02-08T20:34:05.820Z,4.77
2019-02-08T20:36:35.458Z,5.53
2019-02-08T20:39:08.018Z,4.77
2019-02-08T20:41:38.195Z,4.73
2019-02-08T20:44:08.022Z,3.97
2019-02-08T20:46:37.657Z,4.70
2019-02-08T20:49:07.273Z,3.50
2019-02-08T20:51:36.877Z,5.00
2019-02-08T20:54:06.485Z,4.03
2019-02-08T20:56:36.133Z,4.03
2019-02-08T20:59:05.794Z,3.63
2019-02-08T21:01:35.471Z,4.57
2019-02-08T21:04:05.550Z,6.33
2019-02-08T21:06:35.369Z,7.23
2019-02-08T21:09:11.520Z,4.37
2019-02-08T21:11:41.289Z,6.83
2019-02-08T21:14:11.168Z,4.73
2019-02-08T21:16:40.780Z,4.33
2019-02-08T21:19:10.391Z,5.73
2019-02-08T21:21:40.102Z,4.17
2019-02-08T21:24:09.866Z,3.70
2019-02-08T21:26:39.546Z,6.33
2019-02-08T21:29:09.228Z,3.90
2019-02-08T21:31:38.885Z,2.87
2019-02-08T21:34:08.498Z,3.03
2019-02-08T21:36:39.238Z,5.40
2019-02-08T21:39:09.594Z,4.97
2019-02-08T21:41:39.285Z,3.33
2019-02-08T21:44:09.013Z,4.27
2019-02-08T21:46:39.609Z,3.93
2019-02-08T21:49:09.297Z,3.13
2019-02-08T21:51:38.993Z,4.17
2019-02-08T21:54:08.598Z,3.33
2019-02-08T21:56:38.333Z,4.73
2019-02-08T21:59:07.981Z,3.63
2019-02-08T22:01:37.660Z,4.47
2019-02-08T22:04:07.251Z,3.40
2019-02-08T22:06:36.915Z,3.40
2019-02-08T22:09:08.079Z,4.30
2019-02-08T22:11:39.338Z,3.07
2019-02-08T22:14:08.998Z,2.57
2019-02-08T22:16:38.653Z,3.70
2019-02-08T22:19:08.253Z,2.73
2019-02-08T22:21:37.874Z,4.20
2019-02-08T22:24:08.618Z,3.80
2019-02-08T22:26:38.297Z,3.80
2019-02-08T22:29:14.017Z,3.53
2019-02-08T22:31:39.365Z,3.53
2019-02-08T22:34:08.973Z,3.60
2019-02-08T22:36:38.810Z,3.93
2019-02-08T22:39:09.153Z,3.07
2019-02-08T22:41:38.845Z,3.37
2019-02-08T22:44:08.469Z,3.40
2019-02-08T22:46:38.096Z,4.00
2019-02-08T22:49:07.892Z,3.90
2019-02-08T22:51:37.544Z,4.07
2019-02-08T22:54:07.227Z,3.97
2019-02-08T22:56:36.913Z,3.70
2019-02-08T22:59:06.553Z,2.90
2019-02-08T23:01:40.731Z,3.13
2019-02-08T23:04:10.585Z,3.23
2019-02-08T23:06:44.919Z,4.00
2019-02-08T23:09:22.293Z,3.33
2019-02-08T23:11:52.097Z,3.67
2019-02-08T23:14:22.045Z,3.27
2019-02-08T23:16:51.653Z,4.03
2019-02-08T23:19:21.274Z,3.63
2019-02-08T23:21:50.883Z,3.43
2019-02-08T23:24:20.674Z,3.27
2019-02-08T23:26:50.347Z,3.53
2019-02-08T23:29:21.098Z,3.77
2019-02-08T23:31:50.704Z,3.30
2019-02-08T23:34:20.380Z,3.73
2019-02-08T23:36:49.969Z,5.00
2019-02-08T23:39:19.565Z,4.20
2019-02-08T23:41:49.185Z,3.77
2019-02-08T23:44:18.795Z,3.37
2019-02-08T23:46:48.424Z,3.03
2019-02-08T23:49:18.192Z,2.73
2019-02-08T23:51:47.842Z,2.60
2019-02-08T23:54:18.425Z,2.27
2019-02-08T23:56:48.025Z,2.60
2019-02-08T23:59:17.717Z,2.53
